Time;durP1;ratioP1;P1;durP2;ratioP2;P2;SDS_P1;SDS_P2;PMS_P1;PMS_P2;Temp;Humidity;BMP_temperature;BMP_pressure;BME280_temperature;BME280_humidity;BME280_pressure;Samples;Min_cycle;Max_cycle;Signal;HPM_P1;HPM_P2
2022/06/08 00:02:15;;;;;;;4.57;3.70;;;21.40;57.50;;;;;;4922188;29;20036;-83
2022/06/08 00:04:41;;;;;;;5.47;3.67;;;21.40;57.50;;;;;;4920972;29;20417;-83
2022/06/08 00:07:07;;;;;;;5.90;4.60;;;21.40;57.60;;;;;;4937271;29;20031;-83
2022/06/08 00:09:33;;;;;;;5.55;4.00;;;21.30;57.50;;;;;;4921387;29;20442;-83
2022/06/08 00:12:00;;;;;;;5.32;4.15;;;21.30;57.60;;;;;;4922118;29;20027;-84
2022/06/08 00:14:26;;;;;;;5.10;3.97;;;21.30;57.70;;;;;;4952803;28;20118;-83
2022/06/08 00:16:52;;;;;;;5.10;3.90;;;21.20;57.60;;;;;;4952449;29;20444;-83
2022/06/08 00:19:17;;;;;;;5.03;3.95;;;21.20;57.70;;;;;;4920634;29;20023;-83
2022/06/08 00:21:43;;;;;;;5.25;3.90;;;21.20;57.70;;;;;;4936177;29;20484;-84
2022/06/08 00:24:09;;;;;;;4.57;3.88;;;21.20;57.80;;;;;;4936532;29;20031;-83
2022/06/08 00:26:36;;;;;;;5.05;4.20;;;21.10;57.80;;;;;;4937191;29;20479;-83
2022/06/08 00:29:03;;;;;;;4.93;4.15;;;21.10;57.80;;;;;;4921097;29;20039;-83
2022/06/08 00:31:31;;;;;;;5.18;4.13;;;21.10;57.90;;;;;;4936895;29;20166;-83
2022/06/08 00:33:57;;;;;;;4.72;3.90;;;21.00;57.80;;;;;;4936438;29;20020;-83
2022/06/08 00:36:23;;;;;;;6.00;4.50;;;21.00;57.90;;;;;;4952711;29;20036;-83
2022/06/08 00:38:48;;;;;;;5.22;3.90;;;20.90;57.90;;;;;;4952493;29;20374;-83
2022/06/08 00:41:38;;;;;;;4.90;4.00;;;21.00;58.00;;;;;;4936172;29;20047;-82
2022/06/08 00:44:11;;;;;;;5.18;4.25;;;20.90;58.10;;;;;;4935875;29;20032;-83
2022/06/08 00:46:37;;;;;;;5.20;4.03;;;20.90;58.00;;;;;;4936167;29;20031;-83
2022/06/08 00:49:14;;;;;;;5.22;4.28;;;20.90;58.10;;;;;;4920149;29;20036;-83
2022/06/08 00:51:40;;;;;;;5.22;3.90;;;20.80;58.20;;;;;;4935668;29;20111;-83
2022/06/08 00:54:11;;;;;;;5.13;3.83;;;20.80;58.20;;;;;;4952292;28;20054;-83
2022/06/08 00:56:41;;;;;;;5.60;4.18;;;20.80;58.20;;;;;;4935559;29;20028;-84
2022/06/08 00:59:08;;;;;;;5.60;4.25;;;20.80;58.30;;;;;;4935286;29;20465;-83
2022/06/08 01:01:34;;;;;;;4.75;3.85;;;20.70;58.30;;;;;;4934862;29;20031;-83
2022/06/08 01:04:14;;;;;;;6.03;3.90;;;20.70;58.30;;;;;;4935295;29;20059;-83
2022/06/08 01:06:45;;;;;;;4.88;4.00;;;20.70;58.50;;;;;;4919943;29;20095;-83
2022/06/08 01:09:41;;;;;;;5.70;4.25;;;20.70;58.40;;;;;;4935325;29;20123;-83
2022/06/08 01:12:15;;;;;;;5.68;4.07;;;20.60;58.50;;;;;;4955530;29;20027;-83
2022/06/08 01:14:48;;;;;;;5.35;4.22;;;20.60;58.50;;;;;;4939832;29;20118;-83
2022/06/08 01:17:17;;;;;;;5.30;4.03;;;20.60;58.50;;;;;;4955067;29;20055;-83
2022/06/08 01:19:47;;;;;;;4.78;3.92;;;20.50;58.50;;;;;;4924691;29;20058;-82
2022/06/08 01:22:19;;;;;;;5.20;3.78;;;20.50;58.50;;;;;;4939778;29;20037;-83
2022/06/08 01:24:51;;;;;;;5.38;4.00;;;20.50;58.60;;;;;;4939616;29;20023;-83
2022/06/08 01:27:30;;;;;;;5.65;3.97;;;20.50;58.60;;;;;;4955217;29;20056;-83
2022/06/08 01:30:06;;;;;;;5.00;3.95;;;20.50;59.40;;;;;;4939102;29;20091;-83
2022/06/08 01:32:36;;;;;;;4.80;3.65;;;20.40;58.70;;;;;;4938865;29;20130;-83
2022/06/08 01:35:15;;;;;;;6.38;4.35;;;20.40;58.70;;;;;;4922688;29;20031;-83
2022/06/08 01:38:04;;;;;;;5.20;3.88;;;20.40;58.80;;;;;;4939696;29;20024;-83
2022/06/08 01:40:50;;;;;;;6.13;4.32;;;20.40;58.90;;;;;;4938408;29;20058;-83
2022/06/08 01:43:45;;;;;;;5.47;4.20;;;20.30;58.90;;;;;;4918538;29;20066;-83
2022/06/08 01:46:29;;;;;;;4.60;3.70;;;20.30;58.90;;;;;;4953718;29;20055;-83
2022/06/08 01:49:37;;;;;;;4.93;4.03;;;20.30;58.90;;;;;;4939462;29;20387;-83
2022/06/08 01:52:31;;;;;;;4.07;3.38;;;20.30;58.90;;;;;;4922126;29;20028;-84
2022/06/08 01:55:24;;;;;;;5.30;3.85;;;20.20;58.90;;;;;;4939135;29;20023;-83
2022/06/08 01:58:08;;;;;;;5.13;3.67;;;20.20;58.90;;;;;;4939033;29;20044;-83
2022/06/08 02:00:39;;;;;;;4.90;4.00;;;20.30;59.00;;;;;;4940582;29;20042;-83
2022/06/08 02:03:04;;;;;;;5.00;3.63;;;20.20;59.00;;;;;;4939795;29;20070;-83
2022/06/08 02:06:06;;;;;;;4.72;3.75;;;20.20;59.10;;;;;;4955705;29;20063;-83
2022/06/08 02:08:49;;;;;;;4.97;4.10;;;20.20;59.20;;;;;;4929381;29;20039;-83
2022/06/08 02:11:26;;;;;;;5.68;3.70;;;20.20;59.10;;;;;;4947792;29;20019;-82
2022/06/08 02:14:00;;;;;;;5.78;4.35;;;20.10;59.10;;;;;;4950420;29;20187;-83
2022/06/08 02:16:39;;;;;;;5.70;3.90;;;20.10;59.10;;;;;;4932659;29;20111;-83
2022/06/08 02:19:37;;;;;;;5.38;4.20;;;20.10;59.30;;;;;;4947824;29;20063;-82
2022/06/08 02:22:08;;;;;;;6.03;3.97;;;20.10;59.30;;;;;;4940321;29;20467;-82
2022/06/08 02:24:50;;;;;;;5.22;4.38;;;20.10;59.20;;;;;;4940491;29;20027;-83
2022/06/08 02:27:23;;;;;;;5.00;4.20;;;20.00;59.20;;;;;;4939399;29;20055;-83
2022/06/08 02:29:59;;;;;;;5.22;4.10;;;20.00;59.30;;;;;;4938705;29;20028;-83
2022/06/08 02:35:29;;;;;;;5.57;4.25;;;20.00;59.40;;;;;;4938531;29;20027;-83
2022/06/08 02:38:03;;;;;;;5.47;4.20;;;20.00;59.40;;;;;;4937074;29;20114;-83
2022/06/08 02:40:32;;;;;;;5.60;4.50;;;20.00;59.40;;;;;;4953448;29;20027;-83
2022/06/08 02:43:11;;;;;;;5.70;4.43;;;20.00;59.40;;;;;;4936916;29;20020;-83
2022/06/08 02:45:44;;;;;;;5.82;4.78;;;20.00;59.50;;;;;;4938010;29;20035;-84
2022/06/08 02:48:13;;;;;;;6.10;4.88;;;20.00;59.50;;;;;;4921750;29;20023;-84
2022/06/08 02:50:54;;;;;;;6.07;4.82;;;19.90;59.50;;;;;;4937459;29;20031;-83
2022/06/08 02:53:23;;;;;;;6.00;4.60;;;19.90;59.50;;;;;;4937847;29;20106;-83
2022/06/08 02:56:16;;;;;;;6.00;4.78;;;19.90;59.50;;;;;;4953594;29;20173;-83
2022/06/08 02:58:41;;;;;;;5.53;4.68;;;19.90;59.70;;;;;;4892354;29;20369;-83
2022/06/08 03:01:20;;;;;;;6.32;4.88;;;19.90;59.60;;;;;;4937081;29;20038;-83
2022/06/08 03:03:51;;;;;;;6.43;5.20;;;19.90;59.80;;;;;;4953965;29;20090;-83
2022/06/08 03:06:25;;;;;;;6.70;5.60;;;19.90;59.80;;;;;;4937538;29;20028;-83
2022/06/08 03:08:59;;;;;;;6.70;5.55;;;19.80;59.70;;;;;;4921437;29;20113;-83
2022/06/08 03:11:31;;;;;;;6.90;5.57;;;19.80;59.80;;;;;;4952842;29;20020;-83
2022/06/08 03:14:02;;;;;;;6.07;4.85;;;19.80;59.80;;;;;;4936961;29;20059;-83
2022/06/08 03:16:35;;;;;;;6.55;5.07;;;19.80;59.80;;;;;;4936692;29;20104;-83
2022/06/08 03:19:08;;;;;;;7.28;5.90;;;19.80;59.90;;;;;;4937463;29;20028;-83
2022/06/08 03:21:35;;;;;;;7.22;5.95;;;19.70;59.80;;;;;;4939333;29;20027;-84
2022/06/08 03:24:02;;;;;;;7.05;5.57;;;19.70;59.80;;;;;;4936737;29;20027;-84
2022/06/08 03:26:37;;;;;;;6.90;5.60;;;19.70;59.80;;;;;;4936709;29;20038;-83
2022/06/08 03:29:04;;;;;;;6.78;5.47;;;19.70;60.00;;;;;;4937047;29;20027;-84
2022/06/08 03:31:30;;;;;;;7.20;5.57;;;19.70;59.90;;;;;;4936830;29;20116;-84
2022/06/08 03:33:56;;;;;;;6.88;5.88;;;19.70;59.90;;;;;;4936189;29;20498;-84
2022/06/08 03:36:22;;;;;;;6.63;5.32;;;19.70;60.00;;;;;;4920835;29;20107;-84
2022/06/08 03:38:48;;;;;;;7.57;5.85;;;19.70;60.00;;;;;;4921424;29;20475;-83
2022/06/08 03:41:14;;;;;;;7.38;5.88;;;19.60;60.00;;;;;;4937576;29;20047;-83
2022/06/08 03:43:42;;;;;;;7.50;5.70;;;19.60;60.70;;;;;;4937155;29;20087;-80
2022/06/08 03:46:10;;;;;;;7.38;5.78;;;19.60;60.00;;;;;;4921802;29;20348;-83
2022/06/08 03:48:37;;;;;;;7.13;5.57;;;19.60;60.10;;;;;;4936999;29;20487;-83
2022/06/08 03:51:03;;;;;;;7.75;6.22;;;19.60;60.10;;;;;;4920876;29;20484;-83
2022/06/08 03:53:36;;;;;;;7.50;5.70;;;19.50;60.10;;;;;;4936157;29;20140;-83
2022/06/08 03:56:05;;;;;;;7.50;6.28;;;19.50;60.10;;;;;;4936198;29;20031;-83
2022/06/08 03:58:31;;;;;;;7.22;5.93;;;19.50;60.10;;;;;;4935598;29;20027;-83
2022/06/08 04:00:59;;;;;;;6.63;5.80;;;19.50;60.20;;;;;;4920021;29;20122;-83
2022/06/08 04:03:25;;;;;;;6.95;6.00;;;19.50;60.20;;;;;;4920386;29;20020;-83
2022/06/08 04:05:51;;;;;;;8.10;6.15;;;19.50;60.20;;;;;;4951431;29;20028;-82
2022/06/08 04:08:23;;;;;;;7.05;5.68;;;19.40;60.20;;;;;;4905575;29;20099;-82
2022/06/08 04:10:53;;;;;;;6.88;5.63;;;19.40;60.20;;;;;;4921541;29;20119;-82
2022/06/08 04:13:19;;;;;;;6.93;5.93;;;19.40;60.30;;;;;;4936158;29;20028;-82
2022/06/08 04:15:47;;;;;;;7.22;5.88;;;19.40;60.30;;;;;;4952128;28;20035;-83
2022/06/08 04:18:39;;;;;;;7.07;5.78;;;19.40;60.30;;;;;;4921796;29;20043;-83
2022/06/08 04:21:11;;;;;;;7.22;5.85;;;19.40;60.30;;;;;;4890436;29;20417;-83
2022/06/08 04:23:54;;;;;;;7.88;6.45;;;19.40;60.40;;;;;;4936200;29;20183;-84
2022/06/08 04:26:23;;;;;;;7.82;5.90;;;19.40;60.40;;;;;;4907564;29;20034;-82
2022/06/08 04:28:54;;;;;;;7.13;5.93;;;19.30;60.40;;;;;;4952109;29;20118;-83
2022/06/08 04:31:21;;;;;;;7.00;5.85;;;19.30;60.40;;;;;;4920177;29;20131;-83
2022/06/08 04:33:53;;;;;;;7.60;5.95;;;19.30;60.40;;;;;;4921596;29;20058;-84
2022/06/08 04:36:23;;;;;;;7.47;6.20;;;19.30;61.10;;;;;;4905819;29;20031;-83
2022/06/08 04:38:50;;;;;;;7.40;6.22;;;19.30;60.50;;;;;;4919969;29;20083;-82
2022/06/08 04:41:17;;;;;;;7.53;6.18;;;19.30;60.60;;;;;;4936677;29;20020;-82
2022/06/08 04:43:43;;;;;;;6.78;5.32;;;19.30;60.60;;;;;;4936432;29;20023;-82
2022/06/08 04:46:15;;;;;;;6.43;5.63;;;19.30;60.60;;;;;;4922553;29;20034;-82
2022/06/08 04:48:44;;;;;;;7.40;5.93;;;19.20;60.50;;;;;;4925888;29;20125;-82
2022/06/08 04:51:12;;;;;;;7.65;6.25;;;19.20;60.60;;;;;;4908988;29;20028;-83
2022/06/08 04:53:39;;;;;;;7.72;6.20;;;19.20;60.60;;;;;;4940242;29;20067;-82
2022/06/08 04:56:05;;;;;;;8.32;6.75;;;19.20;60.70;;;;;;4939586;29;20441;-83
2022/06/08 04:58:32;;;;;;;6.93;6.22;;;19.20;60.70;;;;;;4939254;29;20071;-83
2022/06/08 05:00:58;;;;;;;8.20;6.60;;;19.20;60.70;;;;;;4923482;29;20461;-83
2022/06/08 05:03:24;;;;;;;7.65;6.30;;;19.20;60.70;;;;;;4939243;29;20031;-82
2022/06/08 05:05:50;;;;;;;7.85;6.50;;;19.20;60.80;;;;;;4924077;29;20024;-82
2022/06/08 05:08:24;;;;;;;7.45;6.32;;;19.20;60.80;;;;;;4909710;29;20032;-82
2022/06/08 05:10:51;;;;;;;7.93;6.40;;;19.20;60.80;;;;;;4939356;29;20024;-83
2022/06/08 05:13:21;;;;;;;7.95;6.75;;;19.20;60.80;;;;;;4939380;29;20429;-85
2022/06/08 05:15:53;;;;;;;7.15;6.28;;;19.20;60.90;;;;;;4939086;29;20024;-82
2022/06/08 05:18:21;;;;;;;7.18;6.07;;;19.20;60.80;;;;;;4939509;29;20417;-82
2022/06/08 05:20:49;;;;;;;7.13;6.00;;;19.20;60.90;;;;;;4955177;28;20082;-83
2022/06/08 05:23:24;;;;;;;7.30;5.85;;;19.20;60.90;;;;;;4940127;29;20095;-83
2022/06/08 05:25:52;;;;;;;7.68;6.15;;;19.20;60.90;;;;;;4938874;29;20020;-82
2022/06/08 05:28:18;;;;;;;6.57;5.78;;;19.20;60.90;;;;;;4923318;29;20560;-82
2022/06/08 05:30:54;;;;;;;6.57;5.60;;;19.20;61.00;;;;;;4923892;29;20046;-82
2022/06/08 05:33:20;;;;;;;6.45;5.65;;;19.20;61.10;;;;;;4938621;29;20051;-83
2022/06/08 05:35:47;;;;;;;7.18;5.82;;;19.20;61.10;;;;;;4938753;29;20118;-83
2022/06/08 05:38:16;;;;;;;7.55;5.88;;;19.20;61.10;;;;;;4954931;29;20063;-82
2022/06/08 05:40:42;;;;;;;7.10;6.13;;;19.20;61.10;;;;;;4954788;28;20067;-83
2022/06/08 05:43:12;;;;;;;6.55;5.70;;;19.20;61.10;;;;;;4923341;29;20027;-83
2022/06/08 05:45:43;;;;;;;8.00;6.00;;;19.20;61.20;;;;;;4940202;29;20464;-85
2022/06/08 05:48:09;;;;;;;7.03;5.40;;;19.20;61.20;;;;;;4924398;29;20036;-85
2022/06/08 05:50:40;;;;;;;6.90;5.68;;;19.30;61.30;;;;;;4941884;28;20126;-85
2022/06/08 05:53:10;;;;;;;6.78;5.78;;;19.30;61.30;;;;;;4941004;29;20028;-86
2022/06/08 05:55:36;;;;;;;7.20;5.78;;;19.30;61.40;;;;;;4923752;29;20066;-84
2022/06/08 05:58:02;;;;;;;6.75;5.68;;;19.30;61.40;;;;;;4939388;29;20154;-81
2022/06/08 06:00:34;;;;;;;6.95;5.95;;;19.30;61.40;;;;;;4923104;29;20031;-79
2022/06/08 06:03:00;;;;;;;6.32;5.45;;;19.30;61.40;;;;;;4939063;29;20055;-83
2022/06/08 06:05:29;;;;;;;6.43;5.45;;;19.30;61.40;;;;;;4938657;29;20430;-83
2022/06/08 06:07:57;;;;;;;6.57;5.40;;;19.30;61.50;;;;;;4940038;29;20111;-82
2022/06/08 06:10:34;;;;;;;6.65;5.40;;;19.30;61.40;;;;;;4925052;29;20063;-84
2022/06/08 06:13:02;;;;;;;6.10;5.20;;;19.40;61.50;;;;;;4954736;29;20028;-83
2022/06/08 06:15:39;;;;;;;6.30;4.93;;;19.40;61.60;;;;;;4910005;29;20032;-82
2022/06/08 06:18:06;;;;;;;6.20;5.03;;;19.40;61.50;;;;;;4938269;29;20413;-82
2022/06/08 06:20:33;;;;;;;5.88;4.80;;;19.40;61.60;;;;;;4922119;29;20077;-81
2022/06/08 06:23:16;;;;;;;6.30;5.22;;;19.40;61.60;;;;;;4926064;29;20040;-82
2022/06/08 06:25:55;;;;;;;6.78;5.20;;;19.50;61.70;;;;;;4925070;29;20580;-83
2022/06/08 06:28:45;;;;;;;5.97;4.97;;;19.50;61.70;;;;;;4940063;28;20059;-82
2022/06/08 06:31:34;;;;;;;6.20;4.68;;;19.50;61.60;;;;;;4955662;29;20035;-83
2022/06/08 06:34:13;;;;;;;5.78;5.07;;;19.50;61.70;;;;;;4944205;29;20032;-82
2022/06/08 06:36:39;;;;;;;6.57;4.95;;;19.50;61.70;;;;;;4950160;29;20030;-82
2022/06/08 06:39:05;;;;;;;5.97;4.85;;;19.60;61.70;;;;;;4954848;29;20063;-81
2022/06/08 06:41:35;;;;;;;5.50;4.63;;;19.60;61.70;;;;;;4957255;29;20062;-81
2022/06/08 06:44:02;;;;;;;5.88;4.80;;;19.60;61.70;;;;;;4935842;29;20156;-83
2022/06/08 06:46:32;;;;;;;5.80;4.60;;;19.60;61.70;;;;;;4926636;29;20039;-82
2022/06/08 06:49:10;;;;;;;5.93;4.60;;;19.60;61.70;;;;;;4925726;29;20106;-83
2022/06/08 06:51:37;;;;;;;5.95;4.72;;;19.70;61.70;;;;;;4938694;29;20062;-82
2022/06/08 06:54:06;;;;;;;5.45;4.65;;;19.70;61.70;;;;;;4921922;29;20024;-83
2022/06/08 06:56:34;;;;;;;5.97;4.80;;;19.70;61.70;;;;;;4937719;29;20030;-82
2022/06/08 06:59:05;;;;;;;5.28;4.32;;;19.70;61.70;;;;;;4936963;29;20039;-82
2022/06/08 07:01:34;;;;;;;5.75;4.60;;;19.80;61.70;;;;;;4936701;29;20036;-82
2022/06/08 07:04:00;;;;;;;5.90;4.80;;;19.80;61.80;;;;;;4921172;29;20016;-82
2022/06/08 07:06:29;;;;;;;5.40;3.85;;;19.80;61.70;;;;;;4920398;29;20035;-82
2022/06/08 07:08:59;;;;;;;5.40;4.30;;;19.90;61.80;;;;;;4920265;29;20535;-83
2022/06/08 07:11:33;;;;;;;5.00;3.90;;;19.90;61.80;;;;;;4921465;29;20039;-82
2022/06/08 07:14:07;;;;;;;4.90;3.80;;;19.90;61.80;;;;;;4952550;29;20027;-82
2022/06/08 07:16:34;;;;;;;5.90;4.18;;;19.90;61.80;;;;;;4936513;29;20058;-82
2022/06/08 07:19:00;;;;;;;5.07;4.20;;;20.00;61.80;;;;;;4920328;29;20033;-81
2022/06/08 07:21:28;;;;;;;4.70;3.53;;;20.00;61.80;;;;;;4922755;29;20437;-83
2022/06/08 07:23:55;;;;;;;4.97;3.75;;;20.00;61.80;;;;;;4936793;29;20035;-81
2022/06/08 07:26:24;;;;;;;4.55;3.47;;;20.00;61.80;;;;;;4921268;29;20027;-83
2022/06/08 07:28:55;;;;;;;4.90;3.90;;;20.00;61.80;;;;;;4936187;29;20063;-81
2022/06/08 07:31:21;;;;;;;4.57;3.70;;;20.10;61.80;;;;;;4936000;29;20032;-81
2022/06/08 07:33:48;;;;;;;4.97;3.80;;;20.10;61.70;;;;;;4935919;29;20030;-81
2022/06/08 07:36:14;;;;;;;5.25;3.70;;;20.10;61.70;;;;;;4936804;29;20036;-80
2022/06/08 07:38:40;;;;;;;4.35;3.53;;;20.20;61.70;;;;;;4936608;28;20107;-80
2022/06/08 07:41:07;;;;;;;4.38;3.33;;;20.20;61.70;;;;;;4935916;29;20038;-79
2022/06/08 07:43:33;;;;;;;4.10;3.20;;;20.20;61.70;;;;;;4936734;29;20054;-80
2022/06/08 07:45:59;;;;;;;4.60;3.13;;;20.20;61.60;;;;;;4935505;29;20463;-83
2022/06/08 07:51:10;;;;;;;3.90;3.00;;;20.30;61.60;;;;;;4951497;29;20035;-81
2022/06/08 07:53:36;;;;;;;4.90;3.20;;;20.30;61.50;;;;;;4935840;29;20031;-82
2022/06/08 07:56:03;;;;;;;4.30;3.33;;;20.40;61.60;;;;;;4936119;29;20032;-81
2022/06/08 07:58:29;;;;;;;3.92;2.90;;;20.30;61.50;;;;;;4936957;29;20109;-82
2022/06/08 08:00:57;;;;;;;3.85;3.00;;;20.40;61.50;;;;;;4904308;29;20040;-82
2022/06/08 08:03:23;;;;;;;3.53;2.65;;;20.50;61.50;;;;;;4920079;29;20469;-82
2022/06/08 08:05:49;;;;;;;4.72;3.08;;;20.50;61.50;;;;;;4935309;29;20032;-82
2022/06/08 08:08:17;;;;;;;3.97;2.80;;;20.50;61.50;;;;;;4936078;29;20039;-82
2022/06/08 08:10:44;;;;;;;3.55;2.85;;;20.50;61.50;;;;;;4936056;29;20028;-82
2022/06/08 08:13:10;;;;;;;4.43;2.78;;;20.60;61.50;;;;;;4935395;29;20052;-81
2022/06/08 08:15:36;;;;;;;4.15;3.00;;;20.60;61.50;;;;;;4951383;29;20035;-81
2022/06/08 08:18:03;;;;;;;3.40;2.42;;;20.60;61.40;;;;;;4935775;29;20027;-83
2022/06/08 08:20:30;;;;;;;3.30;2.50;;;20.60;61.40;;;;;;4936453;29;20028;-81
2022/06/08 08:22:56;;;;;;;3.70;2.60;;;20.70;61.40;;;;;;4937368;28;20083;-83
2022/06/08 08:25:22;;;;;;;3.22;2.35;;;20.70;61.40;;;;;;4935425;29;20039;-80
2022/06/08 08:27:49;;;;;;;2.88;2.33;;;20.80;61.40;;;;;;4919482;29;20062;-82
2022/06/08 08:30:18;;;;;;;2.47;2.05;;;20.90;62.20;;;;;;4935209;29;20036;-81
2022/06/08 08:32:44;;;;;;;3.25;2.25;;;20.90;61.50;;;;;;4935196;29;20496;-82
2022/06/08 08:35:11;;;;;;;2.97;2.40;;;20.90;61.40;;;;;;4935469;29;20024;-82
2022/06/08 08:37:38;;;;;;;2.30;2.00;;;21.00;61.40;;;;;;4935262;29;20535;-82
2022/06/08 08:40:06;;;;;;;2.47;1.88;;;21.10;61.40;;;;;;4951053;29;20070;-82
2022/06/08 08:42:34;;;;;;;3.05;2.05;;;21.10;61.30;;;;;;4951225;29;20115;-82
2022/06/08 08:45:11;;;;;;;3.35;1.95;;;21.20;61.30;;;;;;4919880;29;20449;-83
2022/06/08 08:47:48;;;;;;;2.15;1.85;;;21.30;61.30;;;;;;4935315;29;20087;-83
2022/06/08 08:50:24;;;;;;;3.28;2.17;;;21.30;61.20;;;;;;4935369;29;20035;-80
2022/06/08 08:53:13;;;;;;;2.78;1.85;;;21.40;61.20;;;;;;4936555;29;20028;-86
2022/06/08 08:55:58;;;;;;;2.90;2.03;;;21.50;61.20;;;;;;4919912;29;20039;-84
2022/06/08 08:58:29;;;;;;;;;;;21.60;61.10;;;;;;4953101;29;20197;-84
2022/06/08 09:01:01;;;;;;;1.48;1.38;;;21.60;60.80;;;;;;4935618;29;19919;-84
2022/06/08 09:03:35;;;;;;;1.85;1.65;;;21.70;60.70;;;;;;4935793;29;20031;-83
2022/06/08 09:06:18;;;;;;;2.35;1.80;;;21.80;60.90;;;;;;4936731;29;20056;-84
2022/06/08 09:08:47;;;;;;;2.28;1.80;;;21.90;60.90;;;;;;4935555;29;20035;-84
2022/06/08 09:11:41;;;;;;;1.70;1.60;;;21.90;60.70;;;;;;4935670;29;20042;-83
2022/06/08 09:14:11;;;;;;;2.58;1.73;;;22.00;60.80;;;;;;4932885;29;20043;-83
2022/06/08 09:16:40;;;;;;;1.75;1.52;;;22.00;60.60;;;;;;4936363;29;20027;-85
2022/06/08 09:19:22;;;;;;;2.45;1.70;;;22.10;60.60;;;;;;4935892;29;20083;-88
2022/06/08 09:22:11;;;;;;;1.80;1.50;;;22.20;60.60;;;;;;4937561;29;20032;-91
2022/06/08 09:24:40;;;;;;;1.48;1.27;;;22.20;60.60;;;;;;4927896;29;20046;-83
2022/06/08 09:27:15;;;;;;;1.58;1.33;;;22.30;60.40;;;;;;4952015;29;20027;-83
2022/06/08 09:30:15;;;;;;;1.85;1.60;;;22.30;60.50;;;;;;4951739;29;20032;-83
2022/06/08 09:32:45;;;;;;;1.95;1.50;;;22.40;60.50;;;;;;4918090;29;20040;-83
2022/06/08 09:35:31;;;;;;;1.50;1.40;;;22.40;60.20;;;;;;4938503;29;20027;-84
2022/06/08 09:38:09;;;;;;;1.55;1.45;;;22.50;60.30;;;;;;4938175;29;20111;-82
2022/06/08 09:40:49;;;;;;;2.67;1.73;;;22.50;60.20;;;;;;4937653;29;20066;-83
2022/06/08 09:43:56;;;;;;;2.05;1.30;;;22.60;60.20;;;;;;4954523;29;20477;-84
2022/06/08 09:52:58;;;;;;;1.52;1.17;;;22.70;60.10;;;;;;4955078;29;20032;-84
2022/06/08 09:55:28;;;;;;;1.73;1.30;;;22.70;60.00;;;;;;4954209;29;20121;-82
2022/06/08 09:58:27;;;;;;;2.03;1.40;;;22.80;60.00;;;;;;4955114;29;20035;-83
2022/06/08 10:01:18;;;;;;;2.80;1.70;;;22.80;60.00;;;;;;4938576;29;20070;-84
2022/06/08 10:03:58;;;;;;;2.63;1.40;;;22.80;60.00;;;;;;4938954;29;20476;-86
2022/06/08 10:06:39;;;;;;;2.13;1.50;;;22.80;60.00;;;;;;4954567;29;20047;-86
2022/06/08 10:09:28;;;;;;;1.65;1.45;;;22.90;60.00;;;;;;4955709;29;20043;-85
2022/06/08 10:12:00;;;;;;;3.05;1.55;;;23.00;60.00;;;;;;4939006;29;20031;-85
2022/06/08 10:14:41;;;;;;;3.13;1.55;;;23.00;59.80;;;;;;4940225;29;20126;-82
2022/06/08 10:17:44;;;;;;;1.75;1.52;;;23.00;59.90;;;;;;4939235;29;20050;-84
2022/06/08 10:20:32;;;;;;;1.75;1.52;;;23.00;59.90;;;;;;4924988;29;20135;-85
2022/06/08 10:23:22;;;;;;;2.03;1.52;;;23.10;59.70;;;;;;4938363;29;20032;-84
2022/06/08 10:25:53;;;;;;;1.20;1.10;;;23.10;59.80;;;;;;4954489;29;20135;-80
2022/06/08 10:28:34;;;;;;;2.00;1.38;;;23.20;59.80;;;;;;4937663;29;20047;-84
2022/06/08 10:31:09;;;;;;;2.42;1.20;;;23.10;59.80;;;;;;4954299;29;20067;-82
2022/06/08 10:33:42;;;;;;;1.88;1.40;;;23.20;59.80;;;;;;4937868;29;20028;-83
2022/06/08 10:36:10;;;;;;;1.52;1.30;;;23.20;59.80;;;;;;4953676;29;20032;-85
2022/06/08 10:38:42;;;;;;;2.22;1.30;;;23.20;59.70;;;;;;4938324;29;20047;-84
2022/06/08 10:44:44;;;;;;;2.35;1.50;;;23.30;59.80;;;;;;4938567;29;20032;-83
2022/06/08 10:47:13;;;;;;;1.80;1.38;;;23.30;59.80;;;;;;4937477;29;20032;-81
2022/06/08 10:49:38;;;;;;;3.30;1.50;;;23.30;59.70;;;;;;4938240;29;20058;-84
2022/06/08 10:52:18;;;;;;;1.35;1.25;;;23.30;59.70;;;;;;4939054;29;20031;-84
2022/06/08 10:54:56;;;;;;;2.05;1.30;;;23.30;59.80;;;;;;4938769;29;20042;-82
2022/06/08 10:57:36;;;;;;;1.30;1.10;;;23.30;59.70;;;;;;4938245;29;20024;-84
2022/06/08 11:00:20;;;;;;;2.10;1.48;;;23.40;59.70;;;;;;4938561;29;20124;-86
2022/06/08 11:02:58;;;;;;;1.77;1.37;;;23.40;59.80;;;;;;4954934;29;20039;-82
2022/06/08 11:05:32;;;;;;;1.58;1.30;;;23.40;59.70;;;;;;4962050;29;20275;-83
2022/06/08 11:08:01;;;;;;;2.28;1.42;;;23.40;59.60;;;;;;4935399;29;20070;-81
2022/06/08 11:10:43;;;;;;;2.08;1.23;;;23.40;59.60;;;;;;4965056;29;20039;-81
2022/06/08 11:13:22;;;;;;;2.03;1.40;;;23.40;59.80;;;;;;4964667;29;20036;-81
2022/06/08 11:16:00;;;;;;;3.55;1.50;;;23.40;59.80;;;;;;4960944;29;20027;-81
2022/06/08 11:18:56;;;;;;;3.78;1.55;;;23.40;59.70;;;;;;4939192;29;20028;-81
2022/06/08 11:21:49;;;;;;;1.73;1.30;;;23.40;59.90;;;;;;4938352;29;20012;-83
2022/06/08 11:24:34;;;;;;;2.17;1.30;;;23.40;60.00;;;;;;4937291;29;20032;-84
2022/06/08 11:27:12;;;;;;;2.20;1.17;;;23.30;60.00;;;;;;4952517;29;20149;-81
2022/06/08 11:29:39;;;;;;;2.78;1.30;;;23.30;60.00;;;;;;4937707;29;20039;-82
2022/06/08 11:32:19;;;;;;;2.00;1.35;;;23.30;60.00;;;;;;4936806;28;20461;-80
2022/06/08 11:35:00;;;;;;;3.08;1.48;;;23.30;60.10;;;;;;4937141;29;20468;-86
2022/06/08 11:37:29;;;;;;;1.83;1.20;;;23.30;60.20;;;;;;4937667;29;20035;-85
2022/06/08 11:40:01;;;;;;;3.25;1.45;;;23.30;60.10;;;;;;4937822;29;20023;-84
2022/06/08 11:42:35;;;;;;;2.10;1.30;;;23.30;60.20;;;;;;4937202;29;20472;-84
2022/06/08 11:45:21;;;;;;;1.38;1.27;;;23.30;60.90;;;;;;4937207;29;20032;-83
2022/06/08 11:47:54;;;;;;;3.42;1.63;;;23.30;60.30;;;;;;4951864;29;20027;-83
2022/06/08 11:50:32;;;;;;;3.25;1.40;;;23.30;60.20;;;;;;4937197;29;20032;-84
2022/06/08 11:53:05;;;;;;;2.63;1.50;;;23.30;60.50;;;;;;4936399;29;20036;-86
2022/06/08 11:55:37;;;;;;;2.72;1.40;;;23.30;60.30;;;;;;4937515;29;20465;-86
2022/06/08 11:58:09;;;;;;;2.33;1.33;;;23.20;60.20;;;;;;4938390;28;20032;-82
2022/06/08 12:00:58;;;;;;;2.17;1.30;;;23.30;60.30;;;;;;4919766;29;20039;-80
2022/06/08 12:03:38;;;;;;;2.15;1.27;;;23.20;60.40;;;;;;4935767;29;20038;-81
2022/06/08 12:06:22;;;;;;;3.28;1.27;;;23.20;60.30;;;;;;4951731;29;20106;-82
2022/06/08 12:09:01;;;;;;;1.48;1.10;;;23.20;60.40;;;;;;4936148;29;20023;-81
2022/06/08 12:11:30;;;;;;;1.85;1.02;;;23.20;60.40;;;;;;4936264;29;20026;-82
2022/06/08 12:14:01;;;;;;;3.10;1.40;;;23.20;60.40;;;;;;4936458;28;20088;-81
2022/06/08 12:16:35;;;;;;;2.25;1.30;;;23.20;60.50;;;;;;4936401;29;20476;-81
2022/06/08 12:19:14;;;;;;;2.10;1.50;;;23.20;60.60;;;;;;4937201;29;20028;-82
2022/06/08 12:21:43;;;;;;;2.97;1.30;;;23.10;60.60;;;;;;4936118;29;20103;-86
2022/06/08 12:24:11;;;;;;;3.95;1.35;;;23.10;60.60;;;;;;4935868;29;20032;-85
2022/06/08 12:27:12;;;;;;;3.95;1.25;;;23.10;60.70;;;;;;4953117;29;20027;-85
2022/06/08 12:30:30;;;;;;;3.08;1.33;;;23.10;60.80;;;;;;4937325;29;20082;-82
2022/06/08 12:33:03;;;;;;;2.50;1.20;;;23.10;60.80;;;;;;4896993;29;20036;-82
2022/06/08 12:35:50;;;;;;;2.08;1.25;;;23.00;60.70;;;;;;4934775;29;20040;-85
2022/06/08 12:38:28;;;;;;;2.15;1.40;;;23.00;60.80;;;;;;4937433;29;20020;-90
2022/06/08 12:41:13;;;;;;;1.80;1.23;;;23.00;60.80;;;;;;4920266;29;20514;-85
2022/06/08 12:44:04;;;;;;;1.55;1.15;;;23.00;61.00;;;;;;4936001;29;20031;-82
2022/06/08 12:46:35;;;;;;;1.27;1.13;;;23.00;61.00;;;;;;4936475;29;20035;-82
2022/06/08 12:49:15;;;;;;;2.10;1.40;;;23.00;61.00;;;;;;4937399;29;20028;-85
2022/06/08 12:52:18;;;;;;;1.90;1.40;;;23.00;61.10;;;;;;4936997;29;20031;-87
2022/06/08 12:54:44;;;;;;;2.38;1.20;;;22.90;61.20;;;;;;4937948;29;20094;-86
2022/06/08 12:57:13;;;;;;;1.30;1.08;;;22.90;61.00;;;;;;4923570;29;20344;-85
2022/06/08 12:59:43;;;;;;;2.53;1.42;;;22.90;61.10;;;;;;4953731;29;20034;-86
2022/06/08 13:02:14;;;;;;;2.40;1.40;;;22.90;61.90;;;;;;4920935;29;20020;-86
2022/06/08 13:04:40;;;;;;;2.15;1.30;;;22.90;61.30;;;;;;4936599;29;20024;-88
2022/06/08 13:07:09;;;;;;;1.25;1.10;;;22.90;61.20;;;;;;4940292;28;20082;-86
2022/06/08 13:09:35;;;;;;;2.28;1.08;;;22.90;61.30;;;;;;4940918;29;20144;-85
2022/06/08 13:12:01;;;;;;;2.33;1.10;;;22.90;61.30;;;;;;4924241;29;20028;-86
2022/06/08 13:14:27;;;;;;;1.45;0.98;;;22.90;61.40;;;;;;4942286;29;20034;-87
2022/06/08 13:16:52;;;;;;;2.42;1.23;;;22.90;61.40;;;;;;4940648;29;20028;-83
2022/06/08 13:19:19;;;;;;;2.03;1.10;;;22.90;61.40;;;;;;4954649;29;20139;-81
2022/06/08 13:21:47;;;;;;;1.83;1.08;;;22.80;61.40;;;;;;4938508;29;20038;-82
2022/06/08 13:24:13;;;;;;;3.15;1.52;;;22.80;61.50;;;;;;4954960;29;20087;-82
2022/06/08 13:26:40;;;;;;;1.60;1.20;;;22.80;61.50;;;;;;4938894;29;20027;-81
2022/06/08 13:29:06;;;;;;;2.20;1.30;;;22.80;61.50;;;;;;4938826;29;20051;-81
2022/06/08 13:31:32;;;;;;;1.70;1.00;;;22.80;61.50;;;;;;4923699;29;20481;-81
2022/06/08 13:34:00;;;;;;;2.03;1.10;;;22.80;61.50;;;;;;4922459;29;20039;-82
2022/06/08 13:36:43;;;;;;;2.13;1.25;;;22.70;61.50;;;;;;4938362;29;20023;-82